createdAt,value
2019-03-01T00:00:03.555Z,8.38
2019-03-01T00:01:11.599Z,8.40
2019-03-01T00:02:19.657Z,8.40
2019-03-01T00:03:27.722Z,8.30
2019-03-01T00:04:35.783Z,8.41
2019-03-01T00:05:43.844Z,8.34
2019-03-01T00:06:51.905Z,8.29
2019-03-01T00:07:59.965Z,8.38
2019-03-01T00:09:08.030Z,8.43
2019-03-01T00:10:16.090Z,8.41
2019-03-01T00:11:24.140Z,8.37
2019-03-01T00:12:32.217Z,8.30
2019-03-01T00:13:40.243Z,8.36
2019-03-01T00:14:48.308Z,8.29
2019-03-01T00:15:56.369Z,8.18
2019-03-01T00:17:04.431Z,8.18
2019-03-01T00:18:12.513Z,8.11
2019-03-01T00:19:20.560Z,8.11
2019-03-01T00:20:28.618Z,8.08
2019-03-01T00:21:36.690Z,7.93
2019-03-01T00:22:44.781Z,7.97
2019-03-01T00:23:52.803Z,7.97
2019-03-01T00:25:00.860Z,7.95
2019-03-01T00:26:08.931Z,7.93
2019-03-01T00:27:16.965Z,7.95
2019-03-01T00:28:25.051Z,7.98
2019-03-01T00:29:33.104Z,8.01
2019-03-01T00:30:41.168Z,8.07
2019-03-01T00:31:49.230Z,7.97
2019-03-01T00:32:57.283Z,8.02
2019-03-01T00:34:05.338Z,8.01
2019-03-01T00:35:13.386Z,8.02
2019-03-01T00:36:21.458Z,8.11
2019-03-01T00:37:29.520Z,8.18
2019-03-01T00:38:37.569Z,8.16
2019-03-01T00:39:45.639Z,8.10
2019-03-01T00:40:53.702Z,8.15
2019-03-01T00:42:01.769Z,8.16
2019-03-01T00:43:09.832Z,8.08
2019-03-01T00:44:17.859Z,8.15
2019-03-01T00:45:25.926Z,8.28
2019-03-01T00:46:33.997Z,8.11
2019-03-01T00:47:42.063Z,8.16
2019-03-01T00:48:50.137Z,8.22
2019-03-01T00:49:58.155Z,8.18
2019-03-01T00:51:06.233Z,8.12
2019-03-01T00:52:14.325Z,8.28
2019-03-01T00:53:22.356Z,8.15
2019-03-01T00:54:30.422Z,8.19
2019-03-01T00:55:38.465Z,8.12
2019-03-01T00:56:49.177Z,8.12
2019-03-01T00:57:57.214Z,8.12
2019-03-01T00:59:05.283Z,8.12
2019-03-01T01:00:13.342Z,8.19
2019-03-01T01:01:21.404Z,8.12
2019-03-01T01:02:29.458Z,8.12
2019-03-01T01:03:40.129Z,8.11
2019-03-01T01:04:48.221Z,8.16
2019-03-01T01:05:56.250Z,8.16
2019-03-01T01:07:04.324Z,8.19
2019-03-01T01:08:12.371Z,8.29
2019-03-01T01:09:22.458Z,8.28
2019-03-01T01:10:28.486Z,8.25
2019-03-01T01:11:36.567Z,8.29
2019-03-01T01:12:47.264Z,8.28
2019-03-01T01:13:53.284Z,8.25
2019-03-01T01:15:01.354Z,8.23
2019-03-01T01:16:09.398Z,8.23
2019-03-01T01:17:17.492Z,8.26
2019-03-01T01:18:25.526Z,8.30
2019-03-01T01:19:33.592Z,8.26
2019-03-01T01:20:41.625Z,8.22
2019-03-01T01:21:49.704Z,8.19
2019-03-01T01:22:57.781Z,8.08
2019-03-01T01:24:05.819Z,8.12
2019-03-01T01:25:13.893Z,8.12
2019-03-01T01:26:22.009Z,8.12
2019-03-01T01:27:30.013Z,8.10
2019-03-01T01:28:38.049Z,8.12
2019-03-01T01:29:46.116Z,8.10
2019-03-01T01:30:54.192Z,8.10
2019-03-01T01:32:02.257Z,8.20
2019-03-01T01:33:10.309Z,8.12
2019-03-01T01:34:18.366Z,8.22
2019-03-01T01:35:26.421Z,8.11
2019-03-01T01:36:34.484Z,8.22
2019-03-01T01:37:42.541Z,8.16
2019-03-01T01:38:50.595Z,8.16
2019-03-01T01:39:58.671Z,8.08
2019-03-01T01:41:06.720Z,8.05
2019-03-01T01:42:14.782Z,8.15
2019-03-01T01:43:22.850Z,8.00
2019-03-01T01:44:30.922Z,8.08
2019-03-01T01:45:39.006Z,8.08
2019-03-01T01:46:47.034Z,8.05
2019-03-01T01:47:55.084Z,8.10
2019-03-01T01:49:03.140Z,8.02
2019-03-01T01:50:11.217Z,8.01
2019-03-01T01:51:19.279Z,8.04
2019-03-01T01:52:27.348Z,8.07
2019-03-01T01:53:35.396Z,8.10
2019-03-01T01:54:43.440Z,8.07
2019-03-01T01:55:51.522Z,8.02
2019-03-01T01:56:59.566Z,8.05
2019-03-01T01:58:07.604Z,8.02
2019-03-01T01:59:15.677Z,8.07
2019-03-01T02:00:23.892Z,8.05
2019-03-01T02:01:31.829Z,8.07
2019-03-01T02:02:39.870Z,8.05
2019-03-01T02:03:47.936Z,8.11
2019-03-01T02:04:55.994Z,8.02
2019-03-01T02:06:04.063Z,8.05
2019-03-01T02:07:12.105Z,8.07
2019-03-01T02:08:20.180Z,8.07
2019-03-01T02:09:28.238Z,8.02
2019-03-01T02:10:36.285Z,8.05
2019-03-01T02:11:44.352Z,8.02
2019-03-01T02:12:52.412Z,8.07
2019-03-01T02:14:00.454Z,8.08
2019-03-01T02:15:08.516Z,8.02
2019-03-01T02:16:16.592Z,7.93
2019-03-01T02:17:24.657Z,8.12
2019-03-01T02:18:32.700Z,7.93
2019-03-01T02:19:40.762Z,7.98
2019-03-01T02:20:48.808Z,7.90
2019-03-01T02:21:56.872Z,8.00
2019-03-01T02:23:04.935Z,7.97
2019-03-01T02:24:12.995Z,8.00
2019-03-01T02:25:21.075Z,8.01
2019-03-01T02:26:29.151Z,7.95
2019-03-01T02:27:37.187Z,7.98
2019-03-01T02:28:45.244Z,7.98
2019-03-01T02:29:53.320Z,7.97
2019-03-01T02:31:01.387Z,7.93
2019-03-01T02:32:09.450Z,7.93
2019-03-01T02:33:17.491Z,7.87
2019-03-01T02:34:25.560Z,7.80
2019-03-01T02:35:33.638Z,7.86
2019-03-01T02:36:41.682Z,7.86
2019-03-01T02:37:49.735Z,7.86
2019-03-01T02:38:57.806Z,7.75
2019-03-01T02:40:05.870Z,7.77
2019-03-01T02:41:13.944Z,7.82
2019-03-01T02:42:22.020Z,7.77
2019-03-01T02:43:30.078Z,7.79
2019-03-01T02:44:38.120Z,7.75
2019-03-01T02:45:46.173Z,7.80
2019-03-01T02:46:54.229Z,7.82
2019-03-01T02:48:02.289Z,7.75
2019-03-01T02:49:10.322Z,7.86
2019-03-01T02:50:18.407Z,7.77
2019-03-01T02:51:26.454Z,7.79
2019-03-01T02:52:34.524Z,7.83
2019-03-01T02:53:42.580Z,7.71
2019-03-01T02:54:50.644Z,7.74
2019-03-01T02:55:58.725Z,7.71
2019-03-01T02:57:06.767Z,7.80
2019-03-01T02:58:14.882Z,7.82
2019-03-01T02:59:22.925Z,7.79
2019-03-01T03:00:30.967Z,7.79
2019-03-01T03:01:39.007Z,7.85
2019-03-01T03:02:47.056Z,7.77
2019-03-01T03:03:55.119Z,7.72
2019-03-01T03:05:03.197Z,7.68
2019-03-01T03:06:11.249Z,7.63
2019-03-01T03:07:19.315Z,7.71
2019-03-01T03:08:27.373Z,7.60
2019-03-01T03:09:35.459Z,7.63
2019-03-01T03:10:43.485Z,7.63
2019-03-01T03:11:51.525Z,7.69
2019-03-01T03:12:59.612Z,7.60
2019-03-01T03:14:07.647Z,7.57
2019-03-01T03:15:15.704Z,7.52
2019-03-01T03:16:23.786Z,7.53
2019-03-01T03:17:31.853Z,7.52
2019-03-01T03:18:39.916Z,7.53
2019-03-01T03:19:47.991Z,7.53
2019-03-01T03:20:56.034Z,7.64
2019-03-01T03:22:04.117Z,7.53
2019-03-01T03:23:12.170Z,7.53
2019-03-01T03:24:20.208Z,7.50
2019-03-01T03:25:28.244Z,7.67
2019-03-01T03:26:36.342Z,7.50
2019-03-01T03:27:44.385Z,7.50
2019-03-01T03:28:52.435Z,7.53
2019-03-01T03:30:00.651Z,7.55
2019-03-01T03:31:08.565Z,7.53
2019-03-01T03:32:16.627Z,7.45
2019-03-01T03:33:24.694Z,7.53
2019-03-01T03:34:32.750Z,7.48
2019-03-01T03:35:40.842Z,7.49
2019-03-01T03:36:48.858Z,7.52
2019-03-01T03:37:56.920Z,7.43
2019-03-01T03:39:05.002Z,7.48
2019-03-01T03:40:13.061Z,7.58
2019-03-01T03:41:21.150Z,7.52
2019-03-01T03:42:29.234Z,7.50
2019-03-01T03:43:37.246Z,7.43
2019-03-01T03:44:45.286Z,7.46
2019-03-01T03:45:53.372Z,7.43
2019-03-01T03:47:01.451Z,7.45
2019-03-01T03:48:09.448Z,7.45
2019-03-01T03:49:17.510Z,7.48
2019-03-01T03:50:25.601Z,7.48
2019-03-01T03:51:33.643Z,7.46
2019-03-01T03:52:41.719Z,7.43
2019-03-01T03:53:49.766Z,7.39
2019-03-01T03:54:57.817Z,7.40
2019-03-01T03:56:05.900Z,7.40
2019-03-01T03:57:13.952Z,7.34
2019-03-01T03:58:21.999Z,7.48
2019-03-01T03:59:30.077Z,7.40
2019-03-01T04:00:38.173Z,7.34
2019-03-01T04:01:46.185Z,7.46
2019-03-01T04:02:54.271Z,7.40
2019-03-01T04:04:02.300Z,7.37
2019-03-01T04:05:10.357Z,7.53
2019-03-01T04:06:18.433Z,7.40
2019-03-01T04:07:26.485Z,7.42
2019-03-01T04:08:34.539Z,7.32
2019-03-01T04:09:42.608Z,7.37
2019-03-01T04:10:50.675Z,7.45
2019-03-01T04:11:58.730Z,7.35
2019-03-01T04:13:06.794Z,7.39
2019-03-01T04:14:14.825Z,7.39
2019-03-01T04:15:22.900Z,7.43
2019-03-01T04:16:30.977Z,7.46
2019-03-01T04:17:39.039Z,7.39
2019-03-01T04:18:47.078Z,7.35
2019-03-01T04:19:55.139Z,7.37
2019-03-01T04:21:03.189Z,7.37
2019-03-01T04:22:11.259Z,7.30
2019-03-01T04:23:19.317Z,7.32
2019-03-01T04:24:27.356Z,7.35
2019-03-01T04:25:35.426Z,7.40
2019-03-01T04:26:43.499Z,7.42
2019-03-01T04:27:53.298Z,7.42
2019-03-01T04:28:59.620Z,7.35
2019-03-01T04:30:07.651Z,7.42
2019-03-01T04:31:15.741Z,7.43
2019-03-01T04:32:23.818Z,7.37
2019-03-01T04:33:31.853Z,7.37
2019-03-01T04:34:41.338Z,7.35
2019-03-01T04:35:49.375Z,7.31
2019-03-01T04:36:57.417Z,7.34
2019-03-01T04:38:07.103Z,7.39
2019-03-01T04:39:15.160Z,7.42
2019-03-01T04:40:23.226Z,7.40
2019-03-01T04:41:31.298Z,7.34
2019-03-01T04:42:39.339Z,7.40
2019-03-01T04:43:47.382Z,7.39
2019-03-01T04:44:55.452Z,7.35
2019-03-01T04:46:03.513Z,7.39
2019-03-01T04:47:11.577Z,7.40
2019-03-01T04:48:19.643Z,7.42
2019-03-01T04:49:27.703Z,7.37
2019-03-01T04:50:35.767Z,7.43
2019-03-01T04:51:43.814Z,7.37
2019-03-01T04:52:51.875Z,7.37
2019-03-01T04:53:59.950Z,7.34
2019-03-01T04:55:07.985Z,7.37
2019-03-01T04:56:16.060Z,7.40
2019-03-01T04:57:24.139Z,7.42
2019-03-01T04:58:32.174Z,7.32
2019-03-01T04:59:40.254Z,7.37
2019-03-01T05:00:48.307Z,7.42
2019-03-01T05:01:56.359Z,7.34
2019-03-01T05:03:04.415Z,7.34
2019-03-01T05:04:12.469Z,7.34
2019-03-01T05:05:20.524Z,7.31
2019-03-01T05:06:28.596Z,7.27
2019-03-01T05:07:36.651Z,7.30
2019-03-01T05:08:44.728Z,7.17
2019-03-01T05:09:52.772Z,7.24
2019-03-01T05:11:00.828Z,7.21
2019-03-01T05:12:08.891Z,7.21
2019-03-01T05:13:16.956Z,7.24
2019-03-01T05:14:25.030Z,7.21
2019-03-01T05:15:33.071Z,7.23
2019-03-01T05:16:41.112Z,7.21
2019-03-01T05:17:49.177Z,7.21
2019-03-01T05:18:57.255Z,7.27
2019-03-01T05:20:05.309Z,7.20
2019-03-01T05:21:13.361Z,7.21
2019-03-01T05:22:21.424Z,7.23
2019-03-01T05:23:29.504Z,7.20
2019-03-01T05:24:38.652Z,7.24
2019-03-01T05:25:47.577Z,7.23
2019-03-01T05:26:53.669Z,7.23
2019-03-01T05:28:01.728Z,7.17
2019-03-01T05:29:09.823Z,7.21
2019-03-01T05:30:17.829Z,7.16
2019-03-01T05:31:25.924Z,7.21
2019-03-01T05:32:33.969Z,7.28
2019-03-01T05:33:43.262Z,7.23
2019-03-01T05:34:50.078Z,7.17
2019-03-01T05:35:58.134Z,7.25
2019-03-01T05:37:06.403Z,7.13
2019-03-01T05:38:21.441Z,7.15
2019-03-01T05:39:22.913Z,7.20
2019-03-01T05:40:30.366Z,7.17
2019-03-01T05:41:38.420Z,7.17
2019-03-01T05:42:46.490Z,7.17
2019-03-01T05:43:54.589Z,7.20
2019-03-01T05:45:02.629Z,7.15
2019-03-01T05:46:10.681Z,7.16
2019-03-01T05:47:18.750Z,7.16
2019-03-01T05:48:26.775Z,7.12
2019-03-01T05:49:34.830Z,7.16
2019-03-01T05:50:42.910Z,7.13
2019-03-01T05:51:50.972Z,7.15
2019-03-01T05:52:59.032Z,7.13
2019-03-01T05:54:07.086Z,7.17
2019-03-01T05:55:15.303Z,7.12
2019-03-01T05:56:23.488Z,7.27
2019-03-01T05:57:31.350Z,7.13
2019-03-01T05:58:39.329Z,7.10
2019-03-01T05:59:47.405Z,7.28
2019-03-01T06:00:55.454Z,7.23
2019-03-01T06:02:03.516Z,7.27
2019-03-01T06:03:11.572Z,7.20
2019-03-01T06:04:19.642Z,7.25
2019-03-01T06:05:27.676Z,7.27
2019-03-01T06:06:35.753Z,7.23
2019-03-01T06:07:43.795Z,7.21
2019-03-01T06:08:51.892Z,7.25
2019-03-01T06:09:59.919Z,7.17
2019-03-01T06:11:08.639Z,7.20
2019-03-01T06:12:16.051Z,7.15
2019-03-01T06:13:24.122Z,7.15
2019-03-01T06:14:32.190Z,7.21
2019-03-01T06:15:40.562Z,7.23
2019-03-01T06:16:48.324Z,7.21
2019-03-01T06:17:56.410Z,7.24
2019-03-01T06:19:04.407Z,7.23
2019-03-01T06:20:12.478Z,7.13
2019-03-01T06:21:20.530Z,7.24
2019-03-01T06:22:28.573Z,7.16
2019-03-01T06:23:36.636Z,7.13
2019-03-01T06:24:44.708Z,7.20
2019-03-01T06:25:52.782Z,7.24
2019-03-01T06:27:00.842Z,7.24
2019-03-01T06:28:08.897Z,7.21
2019-03-01T06:29:16.943Z,7.21
2019-03-01T06:30:25.000Z,7.27
2019-03-01T06:31:33.075Z,7.17
2019-03-01T06:32:42.235Z,7.25
2019-03-01T06:33:49.183Z,7.24
2019-03-01T06:34:57.224Z,7.27
2019-03-01T06:36:05.304Z,7.20
2019-03-01T06:37:13.365Z,7.24
2019-03-01T06:38:21.428Z,7.23
2019-03-01T06:39:29.496Z,7.21
2019-03-01T06:40:37.555Z,7.20
2019-03-01T06:41:45.609Z,7.20
2019-03-01T06:42:53.678Z,7.27
2019-03-01T06:44:01.714Z,7.30
2019-03-01T06:45:09.788Z,7.20
2019-03-01T06:46:17.861Z,7.24
2019-03-01T06:47:25.918Z,7.21
2019-03-01T06:48:33.982Z,7.27
2019-03-01T06:49:42.021Z,7.24
2019-03-01T06:50:50.087Z,7.20
2019-03-01T06:51:58.140Z,7.20
2019-03-01T06:53:06.216Z,7.17
2019-03-01T06:54:14.277Z,7.21
2019-03-01T06:55:22.329Z,7.20
2019-03-01T06:56:30.390Z,7.27
2019-03-01T06:57:38.437Z,7.28
2019-03-01T06:58:46.508Z,7.27
2019-03-01T06:59:54.566Z,7.30
2019-03-01T07:01:02.623Z,7.21
2019-03-01T07:02:10.681Z,7.25
2019-03-01T07:03:18.787Z,7.23
2019-03-01T07:04:26.820Z,7.32
2019-03-01T07:05:34.870Z,7.27
2019-03-01T07:06:42.926Z,7.20
2019-03-01T07:07:50.998Z,7.27
2019-03-01T07:08:59.053Z,7.32
2019-03-01T07:10:07.104Z,7.24
2019-03-01T07:11:15.184Z,7.28
2019-03-01T07:12:23.237Z,7.27
2019-03-01T07:13:31.298Z,7.27
2019-03-01T07:14:39.362Z,7.23
2019-03-01T07:15:47.387Z,7.23
2019-03-01T07:16:55.479Z,7.24
2019-03-01T07:18:03.547Z,7.23
2019-03-01T07:19:11.597Z,7.15
2019-03-01T07:20:19.664Z,7.17
2019-03-01T07:21:27.706Z,7.16
2019-03-01T07:22:35.777Z,7.20
2019-03-01T07:23:43.827Z,7.20
2019-03-01T07:24:51.948Z,7.16
2019-03-01T07:25:59.955Z,7.23
2019-03-01T07:27:08.016Z,7.20
2019-03-01T07:28:16.067Z,7.12
2019-03-01T07:29:24.144Z,7.15
2019-03-01T07:30:32.198Z,7.20
2019-03-01T07:31:40.262Z,7.21
2019-03-01T07:32:48.302Z,7.12
2019-03-01T07:33:56.379Z,7.15
2019-03-01T07:35:04.428Z,7.17
2019-03-01T07:36:12.525Z,7.09
2019-03-01T07:37:21.915Z,7.16
2019-03-01T07:38:28.603Z,7.13
2019-03-01T07:39:36.676Z,7.13
2019-03-01T07:40:44.737Z,7.12
2019-03-01T07:41:52.777Z,7.15
2019-03-01T07:43:00.851Z,7.17
2019-03-01T07:44:08.915Z,7.07
2019-03-01T07:45:16.986Z,7.12
2019-03-01T07:46:25.043Z,7.07
2019-03-01T07:47:34.192Z,7.05
2019-03-01T07:48:41.203Z,7.06
2019-03-01T07:49:49.224Z,7.03
2019-03-01T07:50:57.250Z,6.94
2019-03-01T07:52:05.879Z,6.98
2019-03-01T07:53:13.423Z,6.97
2019-03-01T07:54:22.321Z,6.92
2019-03-01T07:55:29.534Z,6.98
2019-03-01T07:56:39.811Z,6.80
2019-03-01T07:57:46.511Z,6.74
2019-03-01T07:58:53.710Z,6.81
2019-03-01T08:00:01.770Z,6.74
2019-03-01T08:01:09.829Z,6.76
2019-03-01T08:02:17.905Z,6.71
2019-03-01T08:03:25.961Z,6.80
2019-03-01T08:04:33.985Z,6.73
2019-03-01T08:05:42.051Z,6.71
2019-03-01T08:06:50.137Z,6.70
2019-03-01T08:08:02.289Z,6.71
2019-03-01T08:09:06.231Z,6.76
2019-03-01T08:10:20.491Z,6.70
2019-03-01T08:11:22.351Z,6.77
2019-03-01T08:12:30.938Z,6.71
2019-03-01T08:13:38.472Z,6.66
2019-03-01T08:14:46.532Z,6.81
2019-03-01T08:15:54.591Z,6.76
2019-03-01T08:17:02.657Z,6.69
2019-03-01T08:18:10.720Z,6.70
2019-03-01T08:19:22.245Z,6.66
2019-03-01T08:20:26.847Z,6.69
2019-03-01T08:21:34.887Z,6.66
2019-03-01T08:22:48.328Z,6.69
2019-03-01T08:23:51.012Z,6.69
2019-03-01T08:24:59.092Z,6.62
2019-03-01T08:26:07.133Z,6.66
2019-03-01T08:27:15.214Z,6.69
2019-03-01T08:28:23.281Z,6.67
2019-03-01T08:29:33.984Z,6.64
2019-03-01T08:30:42.406Z,6.62
2019-03-01T08:31:47.413Z,6.64
2019-03-01T08:32:55.503Z,6.59
2019-03-01T08:34:03.556Z,6.69
2019-03-01T08:35:11.606Z,6.61
2019-03-01T08:36:19.745Z,6.62
2019-03-01T08:37:27.723Z,6.67
2019-03-01T08:38:35.820Z,6.66
2019-03-01T08:39:43.856Z,6.70
2019-03-01T08:40:53.877Z,6.73
2019-03-01T08:42:01.166Z,6.80
2019-03-01T08:43:11.455Z,6.71
2019-03-01T08:44:19.282Z,6.69
2019-03-01T08:45:24.154Z,6.71
2019-03-01T08:46:32.224Z,6.77
2019-03-01T08:47:40.262Z,6.74
2019-03-01T08:48:48.312Z,6.84
2019-03-01T08:49:56.384Z,6.84
2019-03-01T08:51:04.444Z,6.91
2019-03-01T08:52:12.522Z,6.94
2019-03-01T08:53:20.561Z,6.95
2019-03-01T08:54:28.622Z,6.95
2019-03-01T08:55:38.805Z,6.95
2019-03-01T08:56:46.338Z,6.98
2019-03-01T08:57:52.816Z,7.05
2019-03-01T08:59:00.974Z,6.91
2019-03-01T09:00:08.942Z,7.03
2019-03-01T09:01:16.993Z,7.06
2019-03-01T09:02:25.061Z,7.12
2019-03-01T09:03:33.137Z,7.03
2019-03-01T09:04:50.389Z,7.13
2019-03-01T09:05:49.232Z,7.16
2019-03-01T09:06:57.311Z,7.17
2019-03-01T09:08:05.386Z,7.13
2019-03-01T09:09:13.446Z,7.15
2019-03-01T09:10:21.462Z,7.27
2019-03-01T09:11:30.604Z,7.24
2019-03-01T09:12:37.616Z,7.30
2019-03-01T09:13:45.647Z,7.37
2019-03-01T09:14:53.764Z,7.39
2019-03-01T09:16:01.772Z,7.42
2019-03-01T09:17:09.830Z,7.52
2019-03-01T09:18:17.898Z,7.50
2019-03-01T09:19:26.197Z,7.52
2019-03-01T09:20:38.395Z,7.55
2019-03-01T09:21:44.273Z,7.52
2019-03-01T09:22:50.166Z,7.60
2019-03-01T09:23:58.378Z,7.67
2019-03-01T09:25:07.621Z,7.69
2019-03-01T09:26:16.588Z,7.64
2019-03-01T09:27:22.798Z,7.74
2019-03-01T09:28:32.659Z,7.68
2019-03-01T09:29:41.405Z,7.63
2019-03-01T09:30:46.582Z,7.60
2019-03-01T09:31:57.571Z,7.68
2019-03-01T09:33:02.695Z,7.58
2019-03-01T09:34:10.773Z,7.64
2019-03-01T09:35:18.822Z,7.69
2019-03-01T09:36:26.881Z,7.53
2019-03-01T09:37:34.938Z,7.67
2019-03-01T09:38:43.640Z,7.68
2019-03-01T09:39:53.480Z,7.52
2019-03-01T09:41:01.151Z,7.61
2019-03-01T09:42:07.188Z,7.67
2019-03-01T09:43:15.238Z,7.72
2019-03-01T09:44:23.313Z,7.75
2019-03-01T09:45:36.032Z,7.79
2019-03-01T09:46:39.429Z,7.85
2019-03-01T09:47:47.489Z,7.85
2019-03-01T09:48:55.538Z,7.82
2019-03-01T09:50:03.590Z,7.82
2019-03-01T09:51:11.675Z,7.89
2019-03-01T09:52:20.335Z,7.83
2019-03-01T09:53:30.443Z,7.92
2019-03-01T09:54:35.843Z,7.97
2019-03-01T09:55:43.925Z,7.85
2019-03-01T09:56:51.979Z,7.86
2019-03-01T09:58:00.080Z,7.85
2019-03-01T09:59:08.081Z,7.86
2019-03-01T10:00:16.179Z,7.86
2019-03-01T10:01:24.223Z,7.82
2019-03-01T10:02:32.370Z,7.87
2019-03-01T10:03:40.331Z,7.86
2019-03-01T10:04:48.417Z,7.77
2019-03-01T10:05:56.469Z,7.77
2019-03-01T10:07:04.567Z,7.86
2019-03-01T10:08:12.575Z,7.80
2019-03-01T10:09:20.657Z,7.86
2019-03-01T10:10:28.702Z,7.77
2019-03-01T10:11:36.863Z,7.87
2019-03-01T10:12:44.849Z,7.92
2019-03-01T10:13:52.887Z,7.92
2019-03-01T10:15:00.960Z,7.97
2019-03-01T10:16:09.015Z,7.93
2019-03-01T10:17:17.068Z,7.98
2019-03-01T10:18:25.139Z,7.98
2019-03-01T10:19:33.206Z,7.95
2019-03-01T10:20:41.887Z,8.00
2019-03-01T10:21:49.325Z,8.00
2019-03-01T10:22:57.404Z,7.93
2019-03-01T10:24:05.459Z,8.01
2019-03-01T10:25:13.522Z,8.18
2019-03-01T10:26:21.756Z,8.05
2019-03-01T10:27:29.632Z,8.18
2019-03-01T10:28:37.675Z,8.34
2019-03-01T10:29:45.782Z,8.33
2019-03-01T10:30:53.830Z,8.30
2019-03-01T10:32:01.866Z,8.44
2019-03-01T10:33:09.937Z,8.41
2019-03-01T10:34:17.989Z,8.45
2019-03-01T10:35:26.064Z,8.56
2019-03-01T10:36:34.113Z,8.65
2019-03-01T10:37:42.191Z,8.68
2019-03-01T10:38:50.253Z,8.73
2019-03-01T10:39:58.311Z,8.74
2019-03-01T10:41:06.357Z,8.79
2019-03-01T10:42:14.438Z,8.89
2019-03-01T10:43:23.470Z,8.87
2019-03-01T10:44:30.650Z,8.98
2019-03-01T10:45:38.649Z,9.01
2019-03-01T10:46:46.671Z,8.99
2019-03-01T10:47:56.747Z,9.02
2019-03-01T10:49:04.811Z,9.13
2019-03-01T10:50:12.872Z,9.18
2019-03-01T10:51:23.351Z,9.18
2019-03-01T10:52:31.408Z,9.26
2019-03-01T10:53:45.223Z,9.15
2019-03-01T10:54:53.201Z,9.18
2019-03-01T10:56:01.294Z,9.17
2019-03-01T10:57:09.307Z,9.20
2019-03-01T10:58:17.381Z,9.11
2019-03-01T10:59:25.414Z,9.08
2019-03-01T11:00:33.496Z,9.05
2019-03-01T11:01:41.656Z,8.95
2019-03-01T11:02:49.630Z,9.04
2019-03-01T11:03:57.677Z,9.05
2019-03-01T11:05:05.760Z,9.13
2019-03-01T11:06:13.813Z,9.01
2019-03-01T11:07:21.896Z,9.05
2019-03-01T11:08:29.938Z,9.02
2019-03-01T11:09:37.996Z,9.04
2019-03-01T11:10:46.056Z,9.04
2019-03-01T11:11:54.118Z,9.01
2019-03-01T11:13:02.195Z,9.05
2019-03-01T11:14:10.284Z,9.04
2019-03-01T11:15:18.315Z,8.92
2019-03-01T11:16:26.374Z,9.02
2019-03-01T11:17:34.428Z,8.95
2019-03-01T11:18:42.493Z,8.96
2019-03-01T11:19:50.557Z,8.98
2019-03-01T11:20:58.631Z,8.89
2019-03-01T11:22:06.670Z,8.83
2019-03-01T11:23:14.743Z,8.83
2019-03-01T11:24:22.805Z,8.83
2019-03-01T11:25:30.880Z,8.87
2019-03-01T11:26:38.947Z,8.79
2019-03-01T11:27:46.995Z,8.83
2019-03-01T11:28:55.073Z,8.74
2019-03-01T11:30:03.154Z,8.79
2019-03-01T11:31:11.177Z,8.80
2019-03-01T11:32:19.245Z,8.62
2019-03-01T11:33:27.308Z,8.65
2019-03-01T11:34:36.218Z,8.68
2019-03-01T11:35:43.419Z,8.45
2019-03-01T11:36:51.489Z,8.50
2019-03-01T11:37:59.560Z,8.53
2019-03-01T11:39:07.605Z,8.55
2019-03-01T11:40:15.678Z,8.55
2019-03-01T11:41:23.736Z,8.56
2019-03-01T11:42:31.798Z,8.58
2019-03-01T11:43:39.856Z,8.52
2019-03-01T11:44:47.918Z,8.55
2019-03-01T11:45:55.973Z,8.56
2019-03-01T11:47:04.075Z,8.47
2019-03-01T11:48:12.120Z,8.48
2019-03-01T11:49:20.178Z,8.56
2019-03-01T11:50:28.258Z,8.45
2019-03-01T11:51:36.279Z,8.56
2019-03-01T11:52:44.341Z,8.59
2019-03-01T11:53:52.414Z,8.62
2019-03-01T11:55:00.516Z,8.65
2019-03-01T11:56:08.542Z,8.68
2019-03-01T11:57:16.593Z,8.68
2019-03-01T11:58:24.661Z,8.76
2019-03-01T11:59:32.735Z,8.83
2019-03-01T12:00:40.806Z,8.98
2019-03-01T12:01:48.855Z,9.01
2019-03-01T12:02:56.910Z,9.10
2019-03-01T12:04:04.971Z,9.15
2019-03-01T12:05:13.045Z,9.31
2019-03-01T12:06:21.100Z,9.36
2019-03-01T12:07:29.164Z,9.31
2019-03-01T12:08:37.211Z,9.36
2019-03-01T12:09:45.293Z,9.32
2019-03-01T12:10:53.360Z,9.33
2019-03-01T12:12:01.414Z,9.38
2019-03-01T12:13:09.467Z,9.43
2019-03-01T12:14:17.566Z,9.48
2019-03-01T12:15:25.606Z,9.51
2019-03-01T12:16:33.651Z,9.60
2019-03-01T12:17:41.732Z,9.57
2019-03-01T12:18:50.394Z,9.60
2019-03-01T12:19:58.450Z,9.64
2019-03-01T12:21:06.534Z,9.65
2019-03-01T12:22:17.239Z,9.68
2019-03-01T12:23:22.655Z,9.58
2019-03-01T12:24:30.703Z,9.66
2019-03-01T12:25:38.775Z,9.68
2019-03-01T12:26:46.839Z,9.75
2019-03-01T12:27:54.921Z,9.76
2019-03-01T12:29:02.958Z,9.81
2019-03-01T12:30:11.027Z,9.87
2019-03-01T12:31:19.086Z,9.94
2019-03-01T12:32:27.153Z,9.93
2019-03-01T12:33:35.230Z,10.02
2019-03-01T12:34:43.288Z,9.97
2019-03-01T12:35:51.341Z,10.02
2019-03-01T12:36:59.410Z,10.12
2019-03-01T12:38:07.437Z,10.12
2019-03-01T12:39:15.522Z,10.20
2019-03-01T12:40:23.626Z,10.26
2019-03-01T12:41:31.664Z,10.20
2019-03-01T12:42:39.719Z,10.32
2019-03-01T12:43:47.747Z,10.30
2019-03-01T12:44:55.862Z,10.34
2019-03-01T12:46:03.912Z,10.34
2019-03-01T12:47:11.963Z,10.55
2019-03-01T12:48:20.045Z,10.52
2019-03-01T12:49:28.153Z,10.45
2019-03-01T12:50:36.167Z,10.56
2019-03-01T12:51:44.219Z,10.52
2019-03-01T12:52:52.279Z,10.42
2019-03-01T12:54:00.408Z,10.34
2019-03-01T12:55:08.394Z,10.32
2019-03-01T12:56:16.482Z,10.20
2019-03-01T12:57:24.548Z,10.14
2019-03-01T12:58:32.596Z,10.14
2019-03-01T12:59:40.665Z,10.07
2019-03-01T13:00:48.724Z,10.01
2019-03-01T13:01:56.793Z,10.05
2019-03-01T13:03:08.178Z,9.96
2019-03-01T13:04:15.568Z,10.02
2019-03-01T13:05:20.999Z,9.99
2019-03-01T13:06:29.040Z,9.90
2019-03-01T13:07:37.099Z,9.94
2019-03-01T13:08:47.629Z,9.94
2019-03-01T13:09:53.234Z,9.83
2019-03-01T13:11:01.281Z,9.81
2019-03-01T13:12:09.399Z,9.89
2019-03-01T13:13:17.384Z,9.81
2019-03-01T13:14:25.485Z,9.84
2019-03-01T13:15:33.543Z,9.86
2019-03-01T13:16:41.597Z,9.89
2019-03-01T13:17:49.988Z,9.81
2019-03-01T13:18:57.719Z,9.83
2019-03-01T13:20:05.791Z,9.74
2019-03-01T13:21:13.874Z,9.81
2019-03-01T13:22:24.740Z,9.74
2019-03-01T13:23:29.989Z,9.75
2019-03-01T13:24:38.106Z,9.66
2019-03-01T13:25:46.132Z,9.65
2019-03-01T13:26:54.177Z,9.57
2019-03-01T13:28:02.242Z,9.57
2019-03-01T13:29:10.302Z,9.46
2019-03-01T13:30:18.359Z,9.48
2019-03-01T13:31:26.428Z,9.31
2019-03-01T13:32:34.487Z,9.39
2019-03-01T13:33:42.540Z,9.38
2019-03-01T13:34:50.642Z,9.33
2019-03-01T13:35:59.874Z,9.28
2019-03-01T13:37:06.739Z,9.23
2019-03-01T13:38:14.809Z,9.15
2019-03-01T13:39:22.886Z,9.02
2019-03-01T13:40:30.936Z,9.05
2019-03-01T13:41:38.982Z,9.01
2019-03-01T13:42:50.323Z,9.02
2019-03-01T13:43:55.122Z,9.01
2019-03-01T13:45:03.169Z,9.14
2019-03-01T13:46:11.234Z,9.15
2019-03-01T13:47:19.282Z,9.14
2019-03-01T13:48:27.417Z,9.17
2019-03-01T13:49:35.407Z,9.17
2019-03-01T13:50:43.473Z,9.20
2019-03-01T13:51:52.843Z,9.17
2019-03-01T13:52:59.613Z,9.21
2019-03-01T13:54:08.879Z,9.26
2019-03-01T13:55:18.477Z,9.18
2019-03-01T13:56:23.794Z,9.21
2019-03-01T13:57:31.945Z,9.20
2019-03-01T13:58:39.928Z,9.32
2019-03-01T13:59:48.016Z,9.23
2019-03-01T14:00:56.038Z,9.18
2019-03-01T14:02:04.244Z,9.31
2019-03-01T14:03:12.150Z,9.24
2019-03-01T14:04:20.235Z,9.21
2019-03-01T14:05:28.293Z,9.31
2019-03-01T14:06:36.375Z,9.28
2019-03-01T14:07:44.425Z,9.18
2019-03-01T14:08:52.463Z,9.15
2019-03-01T14:10:00.696Z,9.20
2019-03-01T14:11:08.645Z,9.21
2019-03-01T14:12:16.653Z,9.15
2019-03-01T14:13:24.721Z,9.17
2019-03-01T14:14:33.828Z,9.21
2019-03-01T14:15:40.852Z,9.20
2019-03-01T14:16:48.902Z,9.24
2019-03-01T14:18:00.359Z,9.14
2019-03-01T14:19:05.030Z,9.17
2019-03-01T14:20:18.829Z,9.14
2019-03-01T14:21:21.162Z,9.11
2019-03-01T14:22:29.203Z,9.08
2019-03-01T14:23:37.245Z,9.04
2019-03-01T14:24:45.354Z,9.10
2019-03-01T14:25:54.590Z,9.04
2019-03-01T14:27:01.454Z,8.98
2019-03-01T14:28:09.531Z,8.98
2019-03-01T14:29:17.590Z,9.02
2019-03-01T14:30:29.102Z,8.98
2019-03-01T14:31:33.734Z,8.92
2019-03-01T14:32:41.776Z,8.99
2019-03-01T14:33:51.606Z,8.99
2019-03-01T14:34:57.889Z,9.05
2019-03-01T14:36:05.982Z,9.05
2019-03-01T14:37:15.015Z,9.10
2019-03-01T14:38:22.097Z,9.11
2019-03-01T14:39:31.174Z,9.13
2019-03-01T14:40:41.455Z,9.23
2019-03-01T14:41:49.476Z,9.21
2019-03-01T14:42:57.546Z,9.17
2019-03-01T14:44:07.639Z,9.31
2019-03-01T14:46:29.823Z,9.36
2019-03-01T14:47:37.877Z,9.47
2019-03-01T14:48:46.907Z,9.53
2019-03-01T14:49:57.395Z,9.57
2019-03-01T14:51:06.963Z,9.57
2019-03-01T14:52:12.738Z,9.69
2019-03-01T14:53:20.789Z,9.68
2019-03-01T14:54:28.867Z,9.72
2019-03-01T14:55:36.927Z,9.69
2019-03-01T14:56:45.036Z,9.72
2019-03-01T14:57:53.040Z,9.64
2019-03-01T14:59:07.390Z,9.66
2019-03-01T15:00:15.430Z,9.69
2019-03-01T15:01:26.544Z,9.72
2019-03-01T15:02:31.556Z,9.56
2019-03-01T15:03:39.638Z,9.54
2019-03-01T15:04:47.712Z,9.50
2019-03-01T15:05:55.747Z,9.50